sensor_id;sensor_type;location;lat;lon;timestamp;P1;durP1;ratioP1;P2;durP2;ratioP2
23181;SDS011;11759;51.282;6.642;2023-06-14T00:00:45;593.70;;;246.65;;
23181;SDS011;11759;51.282;6.642;2023-06-14T00:03:12;669.00;;;305.35;;
23181;SDS011;11759;51.282;6.642;2023-06-14T00:05:44;606.25;;;245.13;;
23181;SDS011;11759;51.282;6.642;2023-06-14T00:08:12;638.60;;;275.05;;
23181;SDS011;11759;51.282;6.642;2023-06-14T00:10:39;591.60;;;242.30;;
23181;SDS011;11759;51.282;6.642;2023-06-14T00:13:08;632.03;;;300.90;;
23181;SDS011;11759;51.282;6.642;2023-06-14T00:15:35;588.33;;;251.52;;
23181;SDS011;11759;51.282;6.642;2023-06-14T00:18:02;602.85;;;261.08;;
23181;SDS011;11759;51.282;6.642;2023-06-14T00:20:30;576.58;;;251.15;;
23181;SDS011;11759;51.282;6.642;2023-06-14T00:22:59;584.72;;;250.82;;
23181;SDS011;11759;51.282;6.642;2023-06-14T00:25:26;592.25;;;247.80;;
23181;SDS011;11759;51.282;6.642;2023-06-14T00:27:57;588.25;;;243.65;;
23181;SDS011;11759;51.282;6.642;2023-06-14T00:30:24;589.30;;;234.35;;
23181;SDS011;11759;51.282;6.642;2023-06-14T00:32:52;595.38;;;239.63;;
23181;SDS011;11759;51.282;6.642;2023-06-14T00:35:19;655.80;;;289.63;;
23181;SDS011;11759;51.282;6.642;2023-06-14T00:37:46;593.55;;;239.75;;
23181;SDS011;11759;51.282;6.642;2023-06-14T00:40:13;621.85;;;264.67;;
23181;SDS011;11759;51.282;6.642;2023-06-14T00:42:41;564.10;;;237.48;;
23181;SDS011;11759;51.282;6.642;2023-06-14T00:45:09;668.05;;;320.67;;
23181;SDS011;11759;51.282;6.642;2023-06-14T00:47:36;560.78;;;237.90;;
23181;SDS011;11759;51.282;6.642;2023-06-14T00:50:05;611.28;;;275.38;;
23181;SDS011;11759;51.282;6.642;2023-06-14T00:52:33;565.05;;;232.13;;
23181;SDS011;11759;51.282;6.642;2023-06-14T00:55:01;613.92;;;270.45;;
23181;SDS011;11759;51.282;6.642;2023-06-14T00:57:29;582.53;;;237.85;;
23181;SDS011;11759;51.282;6.642;2023-06-14T00:59:56;629.83;;;269.33;;
23181;SDS011;11759;51.282;6.642;2023-06-14T01:02:23;578.45;;;220.25;;
23181;SDS011;11759;51.282;6.642;2023-06-14T01:04:53;618.08;;;237.32;;
23181;SDS011;11759;51.282;6.642;2023-06-14T01:07:43;597.63;;;218.75;;
23181;SDS011;11759;51.282;6.642;2023-06-14T01:15:24;577.60;;;236.10;;
23181;SDS011;11759;51.282;6.642;2023-06-14T01:17:51;599.33;;;232.48;;
23181;SDS011;11759;51.282;6.642;2023-06-14T01:20:21;614.08;;;265.58;;
23181;SDS011;11759;51.282;6.642;2023-06-14T01:22:51;581.40;;;232.93;;
23181;SDS011;11759;51.282;6.642;2023-06-14T01:25:21;686.08;;;310.38;;
23181;SDS011;11759;51.282;6.642;2023-06-14T01:27:51;558.72;;;220.23;;
23181;SDS011;11759;51.282;6.642;2023-06-14T01:30:20;635.63;;;286.42;;
23181;SDS011;11759;51.282;6.642;2023-06-14T01:32:47;573.33;;;226.18;;
23181;SDS011;11759;51.282;6.642;2023-06-14T01:35:15;614.00;;;261.02;;
23181;SDS011;11759;51.282;6.642;2023-06-14T01:37:42;602.97;;;251.85;;
23181;SDS011;11759;51.282;6.642;2023-06-14T01:40:09;612.95;;;269.80;;
23181;SDS011;11759;51.282;6.642;2023-06-14T01:42:37;602.88;;;263.95;;
23181;SDS011;11759;51.282;6.642;2023-06-14T01:45:04;588.58;;;257.08;;
23181;SDS011;11759;51.282;6.642;2023-06-14T01:47:32;567.55;;;261.77;;
23181;SDS011;11759;51.282;6.642;2023-06-14T01:49:59;568.83;;;224.57;;
23181;SDS011;11759;51.282;6.642;2023-06-14T01:52:26;595.80;;;257.80;;
23181;SDS011;11759;51.282;6.642;2023-06-14T01:54:53;532.72;;;223.95;;
23181;SDS011;11759;51.282;6.642;2023-06-14T01:57:21;686.92;;;331.55;;
23181;SDS011;11759;51.282;6.642;2023-06-14T01:59:48;604.28;;;267.88;;
23181;SDS011;11759;51.282;6.642;2023-06-14T02:02:15;558.95;;;231.55;;
23181;SDS011;11759;51.282;6.642;2023-06-14T02:04:42;589.80;;;262.60;;
23181;SDS011;11759;51.282;6.642;2023-06-14T02:07:09;475.15;;;228.48;;
23181;SDS011;11759;51.282;6.642;2023-06-14T02:09:35;645.72;;;312.73;;
23181;SDS011;11759;51.282;6.642;2023-06-14T02:12:02;553.88;;;232.27;;
23181;SDS011;11759;51.282;6.642;2023-06-14T02:14:29;562.78;;;244.40;;
23181;SDS011;11759;51.282;6.642;2023-06-14T02:16:55;544.80;;;231.55;;
23181;SDS011;11759;51.282;6.642;2023-06-14T02:19:23;549.20;;;221.23;;
23181;SDS011;11759;51.282;6.642;2023-06-14T02:21:50;570.72;;;238.23;;
23181;SDS011;11759;51.282;6.642;2023-06-14T02:24:16;564.58;;;231.63;;
23181;SDS011;11759;51.282;6.642;2023-06-14T02:26:43;597.30;;;248.98;;
23181;SDS011;11759;51.282;6.642;2023-06-14T02:29:13;563.07;;;225.70;;
23181;SDS011;11759;51.282;6.642;2023-06-14T02:31:41;567.72;;;228.23;;
23181;SDS011;11759;51.282;6.642;2023-06-14T02:34:07;575.13;;;241.63;;
23181;SDS011;11759;51.282;6.642;2023-06-14T02:36:37;565.72;;;224.65;;
23181;SDS011;11759;51.282;6.642;2023-06-14T02:39:11;579.97;;;248.30;;
23181;SDS011;11759;51.282;6.642;2023-06-14T02:41:38;532.42;;;217.52;;
23181;SDS011;11759;51.282;6.642;2023-06-14T02:44:05;576.72;;;228.35;;
23181;SDS011;11759;51.282;6.642;2023-06-14T02:46:32;573.67;;;222.70;;
23181;SDS011;11759;51.282;6.642;2023-06-14T02:48:59;560.33;;;218.57;;
23181;SDS011;11759;51.282;6.642;2023-06-14T02:51:26;612.60;;;268.27;;
23181;SDS011;11759;51.282;6.642;2023-06-14T02:53:53;547.22;;;213.30;;
23181;SDS011;11759;51.282;6.642;2023-06-14T02:56:19;630.92;;;285.50;;
23181;SDS011;11759;51.282;6.642;2023-06-14T02:58:47;525.97;;;211.77;;
23181;SDS011;11759;51.282;6.642;2023-06-14T03:01:16;610.38;;;279.90;;
23181;SDS011;11759;51.282;6.642;2023-06-14T03:03:43;13.43;;;7.25;;
23181;SDS011;11759;51.282;6.642;2023-06-14T03:06:10;12.23;;;6.60;;
23181;SDS011;11759;51.282;6.642;2023-06-14T03:08:40;15.87;;;7.47;;
23181;SDS011;11759;51.282;6.642;2023-06-14T03:11:12;13.80;;;7.18;;
23181;SDS011;11759;51.282;6.642;2023-06-14T03:13:39;14.30;;;7.72;;
23181;SDS011;11759;51.282;6.642;2023-06-14T03:16:07;12.68;;;7.75;;
23181;SDS011;11759;51.282;6.642;2023-06-14T03:18:37;13.23;;;7.55;;
23181;SDS011;11759;51.282;6.642;2023-06-14T03:21:05;12.68;;;6.88;;
23181;SDS011;11759;51.282;6.642;2023-06-14T03:23:32;11.73;;;7.18;;
23181;SDS011;11759;51.282;6.642;2023-06-14T03:26:01;12.43;;;7.75;;
23181;SDS011;11759;51.282;6.642;2023-06-14T03:28:28;10.85;;;7.20;;
23181;SDS011;11759;51.282;6.642;2023-06-14T03:30:55;13.73;;;7.00;;
23181;SDS011;11759;51.282;6.642;2023-06-14T03:33:23;13.38;;;7.35;;
23181;SDS011;11759;51.282;6.642;2023-06-14T03:35:51;11.57;;;6.90;;
23181;SDS011;11759;51.282;6.642;2023-06-14T03:38:18;20.30;;;7.03;;
23181;SDS011;11759;51.282;6.642;2023-06-14T03:40:45;10.52;;;6.88;;
23181;SDS011;11759;51.282;6.642;2023-06-14T03:43:12;11.85;;;6.75;;
23181;SDS011;11759;51.282;6.642;2023-06-14T03:45:39;12.45;;;6.82;;
23181;SDS011;11759;51.282;6.642;2023-06-14T03:48:08;15.50;;;7.07;;
23181;SDS011;11759;51.282;6.642;2023-06-14T03:50:35;12.73;;;7.30;;
23181;SDS011;11759;51.282;6.642;2023-06-14T03:53:05;10.63;;;6.95;;
23181;SDS011;11759;51.282;6.642;2023-06-14T03:55:32;14.68;;;7.18;;
23181;SDS011;11759;51.282;6.642;2023-06-14T03:58:03;13.40;;;6.95;;
23181;SDS011;11759;51.282;6.642;2023-06-14T04:00:31;19.67;;;7.35;;
23181;SDS011;11759;51.282;6.642;2023-06-14T04:02:58;12.07;;;6.82;;
23181;SDS011;11759;51.282;6.642;2023-06-14T04:05:25;14.57;;;7.00;;
23181;SDS011;11759;51.282;6.642;2023-06-14T04:07:54;12.50;;;7.35;;
23181;SDS011;11759;51.282;6.642;2023-06-14T04:10:22;11.27;;;7.25;;
23181;SDS011;11759;51.282;6.642;2023-06-14T04:12:49;11.90;;;7.30;;
23181;SDS011;11759;51.282;6.642;2023-06-14T04:15:16;19.50;;;8.57;;
23181;SDS011;11759;51.282;6.642;2023-06-14T04:17:50;13.93;;;6.50;;
23181;SDS011;11759;51.282;6.642;2023-06-14T04:20:19;13.90;;;6.80;;
23181;SDS011;11759;51.282;6.642;2023-06-14T04:22:46;15.75;;;6.47;;
23181;SDS011;11759;51.282;6.642;2023-06-14T04:25:13;10.30;;;6.70;;
23181;SDS011;11759;51.282;6.642;2023-06-14T04:27:42;9.88;;;6.38;;
23181;SDS011;11759;51.282;6.642;2023-06-14T04:30:09;10.45;;;6.85;;
23181;SDS011;11759;51.282;6.642;2023-06-14T04:32:43;11.70;;;6.40;;
23181;SDS011;11759;51.282;6.642;2023-06-14T04:35:11;11.27;;;6.65;;
23181;SDS011;11759;51.282;6.642;2023-06-14T04:37:41;11.48;;;6.45;;
23181;SDS011;11759;51.282;6.642;2023-06-14T04:40:09;11.63;;;6.25;;
23181;SDS011;11759;51.282;6.642;2023-06-14T04:42:39;11.50;;;6.47;;
23181;SDS011;11759;51.282;6.642;2023-06-14T04:45:09;12.73;;;6.10;;
23181;SDS011;11759;51.282;6.642;2023-06-14T04:47:38;31.17;;;10.20;;
23181;SDS011;11759;51.282;6.642;2023-06-14T04:50:06;13.35;;;6.82;;
23181;SDS011;11759;51.282;6.642;2023-06-14T04:52:33;8.93;;;6.10;;
23181;SDS011;11759;51.282;6.642;2023-06-14T04:55:03;22.88;;;7.78;;
23181;SDS011;11759;51.282;6.642;2023-06-14T04:57:30;14.00;;;6.65;;
23181;SDS011;11759;51.282;6.642;2023-06-14T04:59:58;16.35;;;6.68;;
23181;SDS011;11759;51.282;6.642;2023-06-14T05:02:28;9.57;;;5.80;;
23181;SDS011;11759;51.282;6.642;2023-06-14T05:04:58;10.00;;;6.07;;
23181;SDS011;11759;51.282;6.642;2023-06-14T05:07:26;10.93;;;6.13;;
23181;SDS011;11759;51.282;6.642;2023-06-14T05:09:53;14.98;;;6.50;;
23181;SDS011;11759;51.282;6.642;2023-06-14T05:12:20;12.13;;;6.38;;
23181;SDS011;11759;51.282;6.642;2023-06-14T05:14:48;9.02;;;6.30;;
23181;SDS011;11759;51.282;6.642;2023-06-14T05:17:17;11.20;;;6.53;;
23181;SDS011;11759;51.282;6.642;2023-06-14T05:19:44;13.00;;;6.25;;
23181;SDS011;11759;51.282;6.642;2023-06-14T05:22:11;12.57;;;6.07;;
23181;SDS011;11759;51.282;6.642;2023-06-14T05:24:38;13.77;;;5.90;;
23181;SDS011;11759;51.282;6.642;2023-06-14T05:27:04;12.63;;;6.47;;
23181;SDS011;11759;51.282;6.642;2023-06-14T05:29:32;17.40;;;6.60;;
23181;SDS011;11759;51.282;6.642;2023-06-14T05:31:58;15.27;;;6.95;;
23181;SDS011;11759;51.282;6.642;2023-06-14T05:34:25;10.93;;;6.43;;
23181;SDS011;11759;51.282;6.642;2023-06-14T05:36:52;13.85;;;6.10;;
23181;SDS011;11759;51.282;6.642;2023-06-14T05:39:18;9.20;;;5.78;;
23181;SDS011;11759;51.282;6.642;2023-06-14T05:41:45;15.82;;;6.10;;
23181;SDS011;11759;51.282;6.642;2023-06-14T05:44:15;13.50;;;6.13;;
23181;SDS011;11759;51.282;6.642;2023-06-14T05:46:42;8.95;;;5.82;;
23181;SDS011;11759;51.282;6.642;2023-06-14T05:49:08;13.70;;;5.88;;
23181;SDS011;11759;51.282;6.642;2023-06-14T05:51:35;14.75;;;6.47;;
23181;SDS011;11759;51.282;6.642;2023-06-14T05:54:02;10.90;;;5.45;;
23181;SDS011;11759;51.282;6.642;2023-06-14T05:56:29;12.70;;;5.82;;
23181;SDS011;11759;51.282;6.642;2023-06-14T05:58:56;13.73;;;5.65;;
23181;SDS011;11759;51.282;6.642;2023-06-14T06:01:23;9.93;;;5.15;;
23181;SDS011;11759;51.282;6.642;2023-06-14T06:03:49;9.77;;;5.35;;
23181;SDS011;11759;51.282;6.642;2023-06-14T06:06:16;12.05;;;5.45;;
23181;SDS011;11759;51.282;6.642;2023-06-14T06:08:43;8.73;;;5.25;;
23181;SDS011;11759;51.282;6.642;2023-06-14T06:11:10;10.38;;;5.70;;
23181;SDS011;11759;51.282;6.642;2023-06-14T06:13:37;13.90;;;5.85;;
23181;SDS011;11759;51.282;6.642;2023-06-14T06:16:05;58.00;;;16.38;;
23181;SDS011;11759;51.282;6.642;2023-06-14T06:18:32;31.65;;;10.02;;
23181;SDS011;11759;51.282;6.642;2023-06-14T06:20:59;689.63;;;324.02;;
23181;SDS011;11759;51.282;6.642;2023-06-14T06:23:26;645.63;;;292.05;;
23181;SDS011;11759;51.282;6.642;2023-06-14T06:25:53;651.50;;;300.58;;
23181;SDS011;11759;51.282;6.642;2023-06-14T06:28:19;685.80;;;342.98;;
23181;SDS011;11759;51.282;6.642;2023-06-14T06:30:46;634.72;;;297.42;;
23181;SDS011;11759;51.282;6.642;2023-06-14T06:33:13;652.55;;;326.88;;
23181;SDS011;11759;51.282;6.642;2023-06-14T06:35:40;666.50;;;338.23;;
23181;SDS011;11759;51.282;6.642;2023-06-14T06:38:07;756.17;;;436.48;;
23181;SDS011;11759;51.282;6.642;2023-06-14T06:40:35;623.20;;;316.83;;
23181;SDS011;11759;51.282;6.642;2023-06-14T06:43:02;695.38;;;387.98;;
23181;SDS011;11759;51.282;6.642;2023-06-14T06:45:35;625.53;;;324.17;;
23181;SDS011;11759;51.282;6.642;2023-06-14T06:48:02;656.40;;;364.58;;
23181;SDS011;11759;51.282;6.642;2023-06-14T06:50:29;633.97;;;338.45;;
23181;SDS011;11759;51.282;6.642;2023-06-14T06:52:56;640.63;;;359.50;;
23181;SDS011;11759;51.282;6.642;2023-06-14T06:55:23;640.90;;;348.48;;
23181;SDS011;11759;51.282;6.642;2023-06-14T06:57:50;627.80;;;350.95;;
23181;SDS011;11759;51.282;6.642;2023-06-14T07:00:19;702.38;;;410.50;;
23181;SDS011;11759;51.282;6.642;2023-06-14T07:02:46;626.42;;;338.45;;
23181;SDS011;11759;51.282;6.642;2023-06-14T07:05:13;681.05;;;391.55;;
23181;SDS011;11759;51.282;6.642;2023-06-14T07:07:40;624.75;;;340.10;;
23181;SDS011;11759;51.282;6.642;2023-06-14T07:10:07;651.55;;;408.00;;
23181;SDS011;11759;51.282;6.642;2023-06-14T07:12:33;595.15;;;365.92;;
23181;SDS011;11759;51.282;6.642;2023-06-14T07:17:33;577.97;;;355.88;;
23181;SDS011;11759;51.282;6.642;2023-06-14T07:20:00;588.30;;;395.58;;
23181;SDS011;11759;51.282;6.642;2023-06-14T07:22:33;580.45;;;367.10;;
23181;SDS011;11759;51.282;6.642;2023-06-14T07:25:00;601.47;;;391.48;;
23181;SDS011;11759;51.282;6.642;2023-06-14T07:27:29;590.22;;;371.92;;
23181;SDS011;11759;51.282;6.642;2023-06-14T07:29:55;589.28;;;371.88;;
23181;SDS011;11759;51.282;6.642;2023-06-14T07:32:22;586.38;;;377.70;;
23181;SDS011;11759;51.282;6.642;2023-06-14T07:34:49;579.78;;;375.30;;
23181;SDS011;11759;51.282;6.642;2023-06-14T07:37:15;604.42;;;380.73;;
23181;SDS011;11759;51.282;6.642;2023-06-14T07:39:42;576.95;;;374.48;;
23181;SDS011;11759;51.282;6.642;2023-06-14T07:42:09;615.25;;;398.42;;
23181;SDS011;11759;51.282;6.642;2023-06-14T07:44:36;591.33;;;365.80;;
23181;SDS011;11759;51.282;6.642;2023-06-14T07:47:03;609.67;;;401.50;;
23181;SDS011;11759;51.282;6.642;2023-06-14T07:49:30;687.83;;;477.65;;
23181;SDS011;11759;51.282;6.642;2023-06-14T07:51:57;581.75;;;395.08;;
23181;SDS011;11759;51.282;6.642;2023-06-14T07:54:25;655.22;;;460.50;;
23181;SDS011;11759;51.282;6.642;2023-06-14T07:56:52;584.00;;;409.35;;
23181;SDS011;11759;51.282;6.642;2023-06-14T07:59:19;620.75;;;439.50;;
23181;SDS011;11759;51.282;6.642;2023-06-14T08:01:46;585.17;;;410.08;;
23181;SDS011;11759;51.282;6.642;2023-06-14T08:04:13;594.42;;;425.02;;
23181;SDS011;11759;51.282;6.642;2023-06-14T08:06:41;609.13;;;424.52;;
23181;SDS011;11759;51.282;6.642;2023-06-14T08:09:13;586.63;;;416.38;;
23181;SDS011;11759;51.282;6.642;2023-06-14T08:11:40;612.50;;;438.80;;
23181;SDS011;11759;51.282;6.642;2023-06-14T08:14:06;582.88;;;420.13;;
23181;SDS011;11759;51.282;6.642;2023-06-14T08:16:33;654.65;;;471.63;;
23181;SDS011;11759;51.282;6.642;2023-06-14T08:19:00;568.90;;;410.42;;
23181;SDS011;11759;51.282;6.642;2023-06-14T08:21:27;613.92;;;444.17;;
23181;SDS011;11759;51.282;6.642;2023-06-14T08:23:55;572.03;;;415.50;;
23181;SDS011;11759;51.282;6.642;2023-06-14T08:26:22;668.13;;;505.52;;
23181;SDS011;11759;51.282;6.642;2023-06-14T08:28:49;623.08;;;465.65;;
23181;SDS011;11759;51.282;6.642;2023-06-14T08:31:15;586.90;;;451.83;;
23181;SDS011;11759;51.282;6.642;2023-06-14T08:33:42;590.92;;;505.17;;
23181;SDS011;11759;51.282;6.642;2023-06-14T08:36:10;581.60;;;509.27;;
23181;SDS011;11759;51.282;6.642;2023-06-14T08:38:38;600.10;;;513.35;;
23181;SDS011;11759;51.282;6.642;2023-06-14T08:41:05;584.90;;;521.00;;
23181;SDS011;11759;51.282;6.642;2023-06-14T08:43:32;597.10;;;532.33;;
23181;SDS011;11759;51.282;6.642;2023-06-14T08:46:03;622.30;;;556.70;;
23181;SDS011;11759;51.282;6.642;2023-06-14T08:48:30;610.30;;;545.80;;
23181;SDS011;11759;51.282;6.642;2023-06-14T08:51:00;634.20;;;568.20;;
23181;SDS011;11759;51.282;6.642;2023-06-14T08:53:30;613.33;;;549.22;;
23181;SDS011;11759;51.282;6.642;2023-06-14T08:56:01;617.58;;;550.45;;
23181;SDS011;11759;51.282;6.642;2023-06-14T08:58:31;621.17;;;547.83;;
23181;SDS011;11759;51.282;6.642;2023-06-14T09:01:01;587.22;;;483.80;;
23181;SDS011;11759;51.282;6.642;2023-06-14T09:03:28;632.03;;;519.33;;
23181;SDS011;11759;51.282;6.642;2023-06-14T09:05:59;573.35;;;467.58;;
23181;SDS011;11759;51.282;6.642;2023-06-14T09:08:27;600.45;;;481.85;;
23181;SDS011;11759;51.282;6.642;2023-06-14T09:10:56;580.38;;;451.38;;
23181;SDS011;11759;51.282;6.642;2023-06-14T09:13:23;602.13;;;459.45;;
23181;SDS011;11759;51.282;6.642;2023-06-14T09:15:50;592.42;;;437.08;;
23181;SDS011;11759;51.282;6.642;2023-06-14T09:18:17;587.03;;;448.88;;
23181;SDS011;11759;51.282;6.642;2023-06-14T09:20:44;597.47;;;463.33;;
23181;SDS011;11759;51.282;6.642;2023-06-14T09:23:10;566.25;;;453.13;;
23181;SDS011;11759;51.282;6.642;2023-06-14T09:25:42;600.40;;;475.73;;
23181;SDS011;11759;51.282;6.642;2023-06-14T09:28:13;585.35;;;431.27;;
23181;SDS011;11759;51.282;6.642;2023-06-14T09:30:40;661.15;;;494.10;;
23181;SDS011;11759;51.282;6.642;2023-06-14T09:33:07;573.80;;;441.02;;
23181;SDS011;11759;51.282;6.642;2023-06-14T09:35:34;611.28;;;469.75;;
23181;SDS011;11759;51.282;6.642;2023-06-14T09:38:02;573.53;;;450.30;;
23181;SDS011;11759;51.282;6.642;2023-06-14T09:40:29;613.88;;;476.63;;
23181;SDS011;11759;51.282;6.642;2023-06-14T09:43:00;650.00;;;505.65;;
23181;SDS011;11759;51.282;6.642;2023-06-14T09:45:26;569.45;;;455.02;;
23181;SDS011;11759;51.282;6.642;2023-06-14T09:47:56;651.45;;;525.67;;
23181;SDS011;11759;51.282;6.642;2023-06-14T09:50:33;574.08;;;450.83;;
23181;SDS011;11759;51.282;6.642;2023-06-14T09:53:06;578.90;;;458.65;;
23181;SDS011;11759;51.282;6.642;2023-06-14T09:55:34;568.42;;;452.50;;
23181;SDS011;11759;51.282;6.642;2023-06-14T09:58:06;628.50;;;509.67;;
23181;SDS011;11759;51.282;6.642;2023-06-14T10:00:34;566.25;;;483.58;;
23181;SDS011;11759;51.282;6.642;2023-06-14T10:03:14;628.20;;;534.60;;
23181;SDS011;11759;51.282;6.642;2023-06-14T10:05:47;591.58;;;505.52;;
23181;SDS011;11759;51.282;6.642;2023-06-14T10:08:16;574.55;;;488.77;;
23181;SDS011;11759;51.282;6.642;2023-06-14T10:10:45;601.35;;;526.50;;
23181;SDS011;11759;51.282;6.642;2023-06-14T10:13:12;583.78;;;513.03;;
23181;SDS011;11759;51.282;6.642;2023-06-14T10:15:54;591.28;;;516.47;;
23181;SDS011;11759;51.282;6.642;2023-06-14T10:24:12;643.65;;;576.42;;
23181;SDS011;11759;51.282;6.642;2023-06-14T10:26:53;625.70;;;561.28;;
23181;SDS011;11759;51.282;6.642;2023-06-14T10:29:25;608.58;;;543.30;;
23181;SDS011;11759;51.282;6.642;2023-06-14T10:31:56;618.28;;;554.35;;
23181;SDS011;11759;51.282;6.642;2023-06-14T10:34:27;630.85;;;565.35;;
23181;SDS011;11759;51.282;6.642;2023-06-14T10:37:05;643.83;;;578.25;;
23181;SDS011;11759;51.282;6.642;2023-06-14T10:39:39;654.83;;;589.22;;
23181;SDS011;11759;51.282;6.642;2023-06-14T10:42:07;711.47;;;636.45;;
23181;SDS011;11759;51.282;6.642;2023-06-14T10:44:38;632.42;;;566.67;;
23181;SDS011;11759;51.282;6.642;2023-06-14T10:52:28;625.05;;;556.75;;
23181;SDS011;11759;51.282;6.642;2023-06-14T10:54:59;615.55;;;544.97;;
23181;SDS011;11759;51.282;6.642;2023-06-14T10:57:27;607.58;;;539.15;;
23181;SDS011;11759;51.282;6.642;2023-06-14T10:59:54;611.75;;;529.50;;
23181;SDS011;11759;51.282;6.642;2023-06-14T11:04:52;648.75;;;581.50;;
23181;SDS011;11759;51.282;6.642;2023-06-14T11:12:47;749.95;;;683.90;;
23181;SDS011;11759;51.282;6.642;2023-06-14T11:15:15;809.88;;;736.95;;
23181;SDS011;11759;51.282;6.642;2023-06-14T11:17:51;821.40;;;751.45;;
23181;SDS011;11759;51.282;6.642;2023-06-14T11:20:19;872.42;;;798.20;;
23181;SDS011;11759;51.282;6.642;2023-06-14T11:22:49;848.58;;;768.50;;
23181;SDS011;11759;51.282;6.642;2023-06-14T11:25:16;874.03;;;795.42;;
23181;SDS011;11759;51.282;6.642;2023-06-14T11:27:43;871.85;;;797.25;;
23181;SDS011;11759;51.282;6.642;2023-06-14T11:30:10;913.28;;;826.90;;
23181;SDS011;11759;51.282;6.642;2023-06-14T11:32:37;891.35;;;810.92;;
23181;SDS011;11759;51.282;6.642;2023-06-14T11:35:04;879.28;;;796.38;;
23181;SDS011;11759;51.282;6.642;2023-06-14T11:37:32;866.90;;;788.58;;
23181;SDS011;11759;51.282;6.642;2023-06-14T11:40:02;886.10;;;804.85;;
23181;SDS011;11759;51.282;6.642;2023-06-14T11:42:36;917.70;;;837.58;;
23181;SDS011;11759;51.282;6.642;2023-06-14T11:45:03;991.60;;;900.22;;
23181;SDS011;11759;51.282;6.642;2023-06-14T11:47:35;994.70;;;906.60;;
23181;SDS011;11759;51.282;6.642;2023-06-14T11:50:04;963.13;;;874.58;;
23181;SDS011;11759;51.282;6.642;2023-06-14T11:52:36;905.92;;;820.45;;
23181;SDS011;11759;51.282;6.642;2023-06-14T11:55:03;923.58;;;835.55;;
23181;SDS011;11759;51.282;6.642;2023-06-14T11:57:36;869.42;;;787.22;;
23181;SDS011;11759;51.282;6.642;2023-06-14T12:00:03;879.00;;;794.55;;
23181;SDS011;11759;51.282;6.642;2023-06-14T12:02:41;847.67;;;767.58;;
23181;SDS011;11759;51.282;6.642;2023-06-14T12:05:09;872.10;;;789.42;;
23181;SDS011;11759;51.282;6.642;2023-06-14T12:07:37;864.50;;;783.95;;
23181;SDS011;11759;51.282;6.642;2023-06-14T12:10:06;873.70;;;791.22;;
23181;SDS011;11759;51.282;6.642;2023-06-14T12:12:35;821.38;;;742.80;;
23181;SDS011;11759;51.282;6.642;2023-06-14T12:15:04;857.35;;;778.05;;
23181;SDS011;11759;51.282;6.642;2023-06-14T12:17:35;859.35;;;783.33;;
23181;SDS011;11759;51.282;6.642;2023-06-14T12:20:06;844.10;;;767.47;;
23181;SDS011;11759;51.282;6.642;2023-06-14T12:22:53;869.63;;;791.38;;
23181;SDS011;11759;51.282;6.642;2023-06-14T12:25:23;859.85;;;781.72;;
23181;SDS011;11759;51.282;6.642;2023-06-14T12:27:56;831.20;;;753.28;;
23181;SDS011;11759;51.282;6.642;2023-06-14T12:30:23;832.17;;;753.72;;
23181;SDS011;11759;51.282;6.642;2023-06-14T12:32:49;854.03;;;775.22;;
23181;SDS011;11759;51.282;6.642;2023-06-14T12:35:18;913.17;;;833.30;;
23181;SDS011;11759;51.282;6.642;2023-06-14T12:37:45;931.80;;;854.13;;
23181;SDS011;11759;51.282;6.642;2023-06-14T12:40:12;979.45;;;902.83;;
23181;SDS011;11759;51.282;6.642;2023-06-14T12:42:40;965.67;;;890.72;;
23181;SDS011;11759;51.282;6.642;2023-06-14T12:45:07;1021.95;;;939.63;;
23181;SDS011;11759;51.282;6.642;2023-06-14T12:47:34;971.47;;;902.17;;
23181;SDS011;11759;51.282;6.642;2023-06-14T12:50:01;1021.83;;;941.40;;
23181;SDS011;11759;51.282;6.642;2023-06-14T12:52:28;954.35;;;882.53;;
23181;SDS011;11759;51.282;6.642;2023-06-14T12:54:55;957.70;;;882.53;;
23181;SDS011;11759;51.282;6.642;2023-06-14T12:57:21;930.80;;;861.63;;
23181;SDS011;11759;51.282;6.642;2023-06-14T12:59:49;961.95;;;887.78;;
23181;SDS011;11759;51.282;6.642;2023-06-14T13:02:17;928.45;;;859.88;;
23181;SDS011;11759;51.282;6.642;2023-06-14T13:04:44;935.42;;;863.95;;
23181;SDS011;11759;51.282;6.642;2023-06-14T13:07:11;904.42;;;835.78;;
23181;SDS011;11759;51.282;6.642;2023-06-14T13:09:38;892.53;;;825.83;;
23181;SDS011;11759;51.282;6.642;2023-06-14T13:12:05;939.50;;;867.70;;
23181;SDS011;11759;51.282;6.642;2023-06-14T13:14:33;893.10;;;829.97;;
23181;SDS011;11759;51.282;6.642;2023-06-14T13:16:59;898.53;;;835.25;;
23181;SDS011;11759;51.282;6.642;2023-06-14T13:19:26;900.80;;;839.47;;
23181;SDS011;11759;51.282;6.642;2023-06-14T13:21:53;899.80;;;837.40;;
23181;SDS011;11759;51.282;6.642;2023-06-14T13:24:19;898.30;;;833.50;;
23181;SDS011;11759;51.282;6.642;2023-06-14T13:26:46;876.50;;;813.10;;
23181;SDS011;11759;51.282;6.642;2023-06-14T13:29:13;865.30;;;803.10;;
23181;SDS011;11759;51.282;6.642;2023-06-14T13:31:39;851.20;;;790.63;;
23181;SDS011;11759;51.282;6.642;2023-06-14T13:34:06;875.80;;;811.67;;
23181;SDS011;11759;51.282;6.642;2023-06-14T13:36:33;867.38;;;803.78;;
23181;SDS011;11759;51.282;6.642;2023-06-14T13:39:00;858.20;;;795.17;;
23181;SDS011;11759;51.282;6.642;2023-06-14T13:41:27;870.42;;;804.65;;
23181;SDS011;11759;51.282;6.642;2023-06-14T13:46:25;896.20;;;822.50;;
23181;SDS011;11759;51.282;6.642;2023-06-14T13:48:52;853.58;;;787.95;;
23181;SDS011;11759;51.282;6.642;2023-06-14T13:51:18;857.08;;;793.42;;
23181;SDS011;11759;51.282;6.642;2023-06-14T13:53:47;853.55;;;787.45;;
23181;SDS011;11759;51.282;6.642;2023-06-14T13:56:15;831.20;;;767.63;;
23181;SDS011;11759;51.282;6.642;2023-06-14T13:58:41;891.38;;;818.05;;
23181;SDS011;11759;51.282;6.642;2023-06-14T14:01:08;829.53;;;766.78;;
23181;SDS011;11759;51.282;6.642;2023-06-14T14:03:35;824.75;;;759.15;;
23181;SDS011;11759;51.282;6.642;2023-06-14T14:06:03;827.45;;;764.63;;
23181;SDS011;11759;51.282;6.642;2023-06-14T14:08:30;844.08;;;783.50;;
23181;SDS011;11759;51.282;6.642;2023-06-14T14:10:56;845.60;;;787.58;;
23181;SDS011;11759;51.282;6.642;2023-06-14T14:13:23;872.17;;;812.15;;
23181;SDS011;11759;51.282;6.642;2023-06-14T14:15:51;882.25;;;819.95;;
23181;SDS011;11759;51.282;6.642;2023-06-14T14:18:18;866.97;;;806.92;;
23181;SDS011;11759;51.282;6.642;2023-06-14T14:20:47;875.20;;;813.10;;
23181;SDS011;11759;51.282;6.642;2023-06-14T14:23:14;857.00;;;798.53;;
23181;SDS011;11759;51.282;6.642;2023-06-14T14:25:41;866.80;;;805.42;;
23181;SDS011;11759;51.282;6.642;2023-06-14T14:28:08;850.60;;;793.28;;
23181;SDS011;11759;51.282;6.642;2023-06-14T14:30:34;835.15;;;778.00;;
23181;SDS011;11759;51.282;6.642;2023-06-14T14:33:04;854.95;;;797.47;;
23181;SDS011;11759;51.282;6.642;2023-06-14T14:35:31;873.45;;;812.33;;
23181;SDS011;11759;51.282;6.642;2023-06-14T14:37:58;866.90;;;806.92;;
23181;SDS011;11759;51.282;6.642;2023-06-14T14:40:25;873.47;;;812.30;;